Time;durP1;ratioP1;P1;durP2;ratioP2;P2;SDS_P1;SDS_P2;PMS_P1;PMS_P2;Temp;Humidity;BMP_temperature;BMP_pressure;BME280_temperature;BME280_humidity;BME280_pressure;Samples;Min_cycle;Max_cycle;Signal;HPM_P1;HPM_P2
2022/01/06 00:01:01;;;;;;;5.27;1.80;;;;;;;2.99;65.72;95232.09;5035392;28;20237;-85
2022/01/06 00:03:31;;;;;;;2.77;1.80;;;;;;;3.01;65.54;95230.22;5025924;28;20275;-85
2022/01/06 00:06:02;;;;;;;4.77;1.83;;;;;;;3.01;65.64;95240.41;5036339;28;20199;-85
2022/01/06 00:08:28;;;;;;;4.23;1.90;;;;;;;2.99;65.52;95231.31;5031519;28;20198;-85
2022/01/06 00:10:55;;;;;;;4.93;2.10;;;;;;;3.01;65.63;95231.97;5030506;28;20725;-85
2022/01/06 00:13:32;;;;;;;4.77;1.90;;;;;;;3.11;65.18;95237.81;5015710;28;20314;-84
2022/01/06 00:16:14;;;;;;;4.93;1.50;;;;;;;3.23;64.37;95241.00;5023711;28;20221;-86
2022/01/06 00:24:12;;;;;;;3.23;1.80;;;;;;;3.25;64.24;95246.75;5035391;28;20259;-83
2022/01/06 00:26:39;;;;;;;5.90;2.00;;;;;;;3.23;63.93;95251.16;5026587;28;20201;-86
2022/01/06 00:29:06;;;;;;;5.03;2.00;;;;;;;3.26;64.35;95248.34;5032583;28;20198;-86
2022/01/06 00:31:33;;;;;;;2.87;2.00;;;;;;;3.21;63.80;95245.41;5027431;28;20310;-87
2022/01/06 00:34:01;;;;;;;4.63;1.70;;;;;;;3.31;63.86;95249.50;5015796;28;20234;-87
2022/01/06 00:36:29;;;;;;;3.07;1.73;;;;;;;3.20;64.51;95243.81;5025902;28;20218;-85
2022/01/06 00:38:56;;;;;;;4.73;1.80;;;;;;;3.08;65.09;95245.72;5033309;28;20198;-86
2022/01/06 00:41:23;;;;;;;5.97;1.93;;;;;;;3.19;64.79;95239.66;5025740;28;20651;-86
2022/01/06 00:43:49;;;;;;;3.23;1.87;;;;;;;3.08;65.99;95245.72;5020235;28;20218;-84
2022/01/06 00:46:16;;;;;;;4.37;1.80;;;;;;;3.04;66.86;95244.41;5035949;28;20687;-85
2022/01/06 00:48:42;;;;;;;2.87;1.70;;;;;;;3.04;67.57;95242.66;5021859;28;20199;-84
2022/01/06 00:51:10;;;;;;;2.20;1.50;;;;;;;2.91;68.90;95241.34;5025003;28;20715;-85
2022/01/06 00:53:37;;;;;;;3.27;1.83;;;;;;;3.01;69.26;95245.47;5034979;28;20290;-86
2022/01/06 00:56:04;;;;;;;4.30;1.70;;;;;;;3.03;69.90;95252.97;5034867;28;20279;-85
2022/01/06 00:58:30;;;;;;;4.03;2.00;;;;;;;3.00;70.65;95255.78;5024113;28;20203;-85
2022/01/06 01:00:57;;;;;;;7.77;2.00;;;;;;;3.04;71.33;95254.59;5029365;28;20283;-83
2022/01/06 01:03:23;;;;;;;5.03;1.77;;;;;;;2.99;71.96;95260.06;5035497;28;20228;-85
2022/01/06 01:05:53;;;;;;;5.13;1.80;;;;;;;3.07;71.95;95254.31;5021649;28;20262;-85
2022/01/06 01:08:20;;;;;;;2.87;1.87;;;;;;;3.02;72.79;95254.72;5016755;28;20195;-85
2022/01/06 01:10:48;;;;;;;5.90;1.83;;;;;;;3.08;73.03;95259.22;5015556;28;20238;-84
2022/01/06 01:13:16;;;;;;;3.50;1.80;;;;;;;2.87;73.34;95252.75;5023897;28;20723;-84
2022/01/06 01:15:47;;;;;;;3.80;2.00;;;;;;;2.91;73.29;95256.59;5034406;28;20719;-87
2022/01/06 01:18:17;;;;;;;3.37;1.53;;;;;;;2.64;73.73;95252.25;5025065;28;20577;-85
2022/01/06 01:20:44;;;;;;;8.73;1.63;;;;;;;2.69;73.90;95275.53;5016507;28;20289;-83
2022/01/06 01:23:10;;;;;;;4.23;1.70;;;;;;;2.73;73.85;95269.22;5033400;28;20218;-84
2022/01/06 01:25:38;;;;;;;4.83;1.77;;;;;;;2.85;73.80;95268.16;5034195;28;20206;-85
2022/01/06 01:28:05;;;;;;;2.67;1.70;;;;;;;2.92;72.61;95269.19;5042588;23;20242;-84
2022/01/06 01:30:39;;;;;;;4.40;1.60;;;;;;;2.91;73.23;95274.41;5032606;28;20229;-84
2022/01/06 01:33:14;;;;;;;4.33;1.80;;;;;;;2.73;73.16;95277.66;5036238;28;20211;-84
2022/01/06 01:35:40;;;;;;;4.53;2.03;;;;;;;2.84;72.76;95270.81;5037391;28;20526;-84
2022/01/06 01:38:08;;;;;;;3.10;1.90;;;;;;;2.92;72.77;95271.72;5036098;28;20218;-83
2022/01/06 01:40:34;;;;;;;3.90;1.57;;;;;;;2.90;72.03;95277.88;5036954;28;20225;-84
2022/01/06 01:43:05;;;;;;;6.80;1.87;;;;;;;2.96;71.52;95283.22;5030124;28;20209;-84
2022/01/06 01:45:33;;;;;;;3.83;1.50;;;;;;;3.07;70.67;95277.19;5020675;28;20217;-84
2022/01/06 01:48:05;;;;;;;4.60;1.80;;;;;;;3.06;70.56;95278.13;5030256;28;20235;-84
2022/01/06 01:50:32;;;;;;;4.00;1.60;;;;;;;3.03;70.31;95288.56;5019468;28;20241;-84
2022/01/06 01:52:59;;;;;;;2.93;1.60;;;;;;;2.99;70.43;95271.97;5035970;28;20583;-84
2022/01/06 01:55:28;;;;;;;5.20;2.00;;;;;;;3.09;70.11;95286.25;5037424;28;20221;-84
2022/01/06 01:57:55;;;;;;;3.17;1.73;;;;;;;3.17;69.58;95287.31;5024959;28;20265;-84
2022/01/06 02:00:26;;;;;;;3.73;1.70;;;;;;;3.25;68.97;95290.78;5038752;28;20624;-84
2022/01/06 02:02:53;;;;;;;1.47;1.33;;;;;;;3.31;68.84;95297.06;5000837;28;20207;-84
2022/01/06 02:05:25;;;;;;;3.70;1.80;;;;;;;3.32;68.48;95303.75;4999913;28;20200;-84
2022/01/06 02:07:53;;;;;;;3.13;1.60;;;;;;;3.37;68.16;95291.41;5006844;28;20705;-84
2022/01/06 02:10:20;;;;;;;3.13;1.50;;;;;;;3.30;67.92;95293.69;5020989;28;20231;-84
2022/01/06 02:12:49;;;;;;;5.27;1.67;;;;;;;3.29;68.10;95293.84;5019555;28;20230;-84
2022/01/06 02:15:15;;;;;;;2.97;1.40;;;;;;;3.26;67.98;95294.94;5019926;28;20218;-84
2022/01/06 02:17:44;;;;;;;3.40;1.67;;;;;;;3.22;68.73;95296.16;5023621;28;20225;-84
2022/01/06 02:20:15;;;;;;;2.70;1.60;;;;;;;3.31;68.99;95291.97;5019127;28;20229;-84
2022/01/06 02:22:42;;;;;;;2.73;1.60;;;;;;;3.42;68.61;95294.34;5032400;28;20194;-84
2022/01/06 02:25:13;;;;;;;2.57;1.43;;;;;;;3.43;68.84;95301.84;5034408;28;20194;-84
2022/01/06 02:27:40;;;;;;;3.77;1.60;;;;;;;3.20;69.00;95294.69;5029762;28;20240;-84
2022/01/06 02:30:08;;;;;;;2.80;1.80;;;;;;;3.18;69.28;95299.91;5039112;28;20241;-84
2022/01/06 02:32:35;;;;;;;2.70;1.57;;;;;;;3.08;69.58;95301.66;5027622;28;20281;-84
2022/01/06 02:35:05;;;;;;;3.23;1.53;;;;;;;3.01;69.72;95313.34;5018609;28;20206;-84
2022/01/06 02:37:33;;;;;;;2.63;1.67;;;;;;;3.05;70.03;95307.84;5020105;28;20222;-84
2022/01/06 02:39:59;;;;;;;2.93;1.67;;;;;;;2.98;69.81;95311.88;5018387;28;20242;-84
2022/01/06 02:42:26;;;;;;;2.47;1.70;;;;;;;3.05;69.87;95312.13;5027569;28;20222;-84
2022/01/06 02:44:53;;;;;;;3.03;1.77;;;;;;;2.98;69.96;95318.69;5038914;28;20214;-84
2022/01/06 02:47:19;;;;;;;3.03;1.70;;;;;;;3.02;70.15;95312.41;5033292;28;20570;-84
2022/01/06 02:49:46;;;;;;;2.40;1.67;;;;;;;3.00;69.40;95322.72;5030732;28;20543;-84
2022/01/06 02:52:12;;;;;;;2.23;1.60;;;;;;;3.16;69.29;95323.88;5037751;28;20202;-84
2022/01/06 02:54:40;;;;;;;2.67;1.73;;;;;;;3.19;68.79;95328.69;5022933;28;20209;-84
2022/01/06 02:57:08;;;;;;;2.07;1.60;;;;;;;3.21;68.72;95324.28;5026311;28;20638;-84
2022/01/06 02:59:34;;;;;;;2.87;1.60;;;;;;;3.19;69.05;95326.16;5041266;28;20248;-84
2022/01/06 03:02:01;;;;;;;3.00;1.33;;;;;;;3.21;68.46;95319.19;5031566;28;20210;-84
2022/01/06 03:04:27;;;;;;;2.87;1.67;;;;;;;3.21;68.35;95319.19;5022753;28;20203;-84
2022/01/06 03:06:54;;;;;;;4.67;1.77;;;;;;;3.11;69.00;95324.28;5038646;28;20222;-84
2022/01/06 03:09:25;;;;;;;3.20;1.77;;;;;;;3.13;68.59;95314.78;5030748;28;20203;-84
2022/01/06 03:11:54;;;;;;;4.50;2.03;;;;;;;3.20;68.52;95330.28;5021292;28;20207;-84
2022/01/06 03:14:20;;;;;;;5.53;1.87;;;;;;;3.26;68.63;95342.47;5031762;28;20565;-83
2022/01/06 03:16:47;;;;;;;2.63;1.70;;;;;;;3.22;68.29;95331.78;5039883;28;20268;-83
2022/01/06 03:19:13;;;;;;;3.90;2.07;;;;;;;3.23;68.80;95327.47;5028331;28;20226;-84
2022/01/06 03:21:40;;;;;;;4.37;2.00;;;;;;;3.17;68.76;95333.13;5021002;28;20199;-84
2022/01/06 03:24:07;;;;;;;5.27;2.00;;;;;;;2.93;69.18;95338.63;5020026;28;20249;-84
2022/01/06 03:26:33;;;;;;;4.47;1.80;;;;;;;2.93;69.49;95343.72;5033189;28;20313;-84
2022/01/06 03:29:01;;;;;;;2.57;1.57;;;;;;;3.05;69.29;95356.16;5027129;28;20206;-84
2022/01/06 03:31:27;;;;;;;5.67;2.57;;;;;;;3.06;69.59;95351.88;5025383;28;20233;-83
2022/01/06 03:33:54;;;;;;;4.00;1.70;;;;;;;3.10;68.96;95345.56;5021875;28;20401;-84
2022/01/06 03:36:20;;;;;;;2.60;1.70;;;;;;;3.09;68.86;95349.84;5021085;28;20219;-84
2022/01/06 03:38:47;;;;;;;1.87;1.50;;;;;;;3.10;69.33;95354.00;5021561;28;20209;-83
2022/01/06 03:41:13;;;;;;;3.83;1.80;;;;;;;3.07;69.26;95350.94;5021417;28;20230;-84
2022/01/06 03:43:39;;;;;;;4.23;1.87;;;;;;;2.96;69.42;95351.09;5021421;28;20281;-84
2022/01/06 03:46:07;;;;;;;3.87;1.60;;;;;;;2.97;70.05;95350.13;5021284;28;20589;-84
2022/01/06 03:48:34;;;;;;;5.73;1.70;;;;;;;2.91;69.67;95354.03;5020485;28;20195;-84
2022/01/06 03:51:00;;;;;;;3.47;1.67;;;;;;;2.94;69.72;95356.28;5020247;28;20233;-84
2022/01/06 03:53:27;;;;;;;3.80;2.00;;;;;;;3.02;69.71;95360.72;5020974;28;20206;-84
2022/01/06 03:55:53;;;;;;;3.10;1.73;;;;;;;3.09;69.76;95357.47;5020092;28;20223;-84
2022/01/06 03:58:20;;;;;;;3.00;1.87;;;;;;;3.04;70.45;95359.66;5019240;28;20218;-84
2022/01/06 04:00:46;;;;;;;3.13;1.80;;;;;;;3.10;70.14;95363.38;5017951;28;20234;-83
2022/01/06 04:03:14;;;;;;;2.43;1.80;;;;;;;3.06;69.88;95369.69;5019265;28;20257;-84
2022/01/06 04:05:40;;;;;;;4.10;1.83;;;;;;;3.04;70.17;95369.03;5019250;28;20210;-84
2022/01/06 04:08:07;;;;;;;2.70;1.90;;;;;;;3.05;70.00;95373.97;5018543;28;20218;-84
2022/01/06 04:10:33;;;;;;;1.77;1.50;;;;;;;3.09;69.85;95371.94;5018467;28;20277;-83
2022/01/06 04:13:00;;;;;;;3.73;2.10;;;;;;;3.19;69.82;95366.84;5019562;28;20470;-84
2022/01/06 04:15:26;;;;;;;4.13;1.93;;;;;;;3.22;69.56;95369.13;5018688;28;20285;-84
2022/01/06 04:17:53;;;;;;;2.37;1.60;;;;;;;3.09;70.09;95369.41;5019198;28;20222;-83
2022/01/06 04:20:21;;;;;;;3.37;1.70;;;;;;;3.15;70.39;95376.50;5018281;28;20237;-83
2022/01/06 04:22:48;;;;;;;2.47;1.80;;;;;;;3.18;70.35;95378.75;5015392;28;20195;-84
2022/01/06 04:25:14;;;;;;;4.10;1.73;;;;;;;3.28;69.82;95383.81;5015022;28;20199;-83
2022/01/06 04:27:42;;;;;;;3.50;2.00;;;;;;;3.17;70.83;95384.78;5018240;28;20225;-83
2022/01/06 04:30:10;;;;;;;2.00;1.53;;;;;;;3.03;71.63;95386.00;5016815;28;20246;-83
2022/01/06 04:32:37;;;;;;;3.20;1.63;;;;;;;3.06;71.98;95385.75;5018313;28;20191;-83
2022/01/06 04:35:05;;;;;;;2.30;1.70;;;;;;;2.97;72.17;95380.66;5018127;28;20214;-84
2022/01/06 04:37:33;;;;;;;2.97;2.00;;;;;;;3.03;72.53;95390.31;5017713;28;20226;-84
2022/01/06 04:39:59;;;;;;;2.07;1.53;;;;;;;2.91;73.03;95397.25;5017779;28;20235;-83
2022/01/06 04:42:26;;;;;;;2.60;1.70;;;;;;;2.72;74.00;95397.25;5017434;28;20206;-84
2022/01/06 04:44:52;;;;;;;2.50;1.73;;;;;;;2.71;75.00;95395.63;5017975;28;20207;-83
2022/01/06 04:47:19;;;;;;;3.10;1.77;;;;;;;2.75;75.65;95389.34;5017641;28;20210;-84
2022/01/06 04:49:45;;;;;;;2.80;1.80;;;;;;;2.89;75.30;95398.31;5017623;28;20222;-84
2022/01/06 04:52:12;;;;;;;3.47;2.00;;;;;;;2.95;75.02;95405.41;5017427;28;20206;-84
2022/01/06 04:54:39;;;;;;;4.90;1.63;;;;;;;3.00;75.65;95411.72;5018264;28;20194;-84
2022/01/06 04:57:06;;;;;;;2.43;1.60;;;;;;;3.00;75.61;95416.00;5018123;28;20234;-84
2022/01/06 04:59:32;;;;;;;2.73;1.50;;;;;;;3.01;75.49;95422.69;5018031;28;20234;-84
2022/01/06 05:01:59;;;;;;;4.47;1.97;;;;;;;3.00;75.65;95419.34;5017136;28;20202;-84
2022/01/06 05:04:25;;;;;;;2.43;1.87;;;;;;;2.93;76.23;95417.44;5017985;28;20214;-83
2022/01/06 05:06:53;;;;;;;2.50;1.70;;;;;;;2.89;75.92;95428.81;5016963;28;20244;-84
2022/01/06 05:09:19;;;;;;;2.23;1.80;;;;;;;2.89;76.03;95418.66;5034900;28;20214;-84
2022/01/06 05:11:47;;;;;;;3.37;1.70;;;;;;;2.85;76.90;95418.13;5036699;28;20577;-84
2022/01/06 05:14:13;;;;;;;1.97;1.60;;;;;;;2.99;76.20;95422.00;5024310;28;20206;-83
2022/01/06 05:16:40;;;;;;;2.33;1.63;;;;;;;2.94;76.27;95419.88;5036656;28;20229;-84
2022/01/06 05:19:06;;;;;;;3.53;1.90;;;;;;;2.92;76.66;95416.66;5019248;28;20681;-83
2022/01/06 05:21:33;;;;;;;3.83;1.70;;;;;;;2.94;76.89;95417.31;5016885;28;20438;-84
2022/01/06 05:24:01;;;;;;;3.23;1.60;;;;;;;2.91;77.56;95427.75;5033130;28;20260;-84
2022/01/06 05:26:28;;;;;;;3.57;2.00;;;;;;;2.73;78.77;95422.53;5034450;28;20276;-83
2022/01/06 05:28:55;;;;;;;3.73;2.10;;;;;;;2.78;79.53;95410.22;5037261;28;20202;-84
2022/01/06 05:31:22;;;;;;;3.20;1.70;;;;;;;2.64;80.03;95422.53;5035301;28;20230;-83
2022/01/06 05:33:48;;;;;;;2.93;1.90;;;;;;;2.59;79.98;95414.50;5017833;28;20214;-83
2022/01/06 05:36:15;;;;;;;4.17;1.60;;;;;;;2.69;79.47;95407.69;5017547;28;20223;-83
2022/01/06 05:38:41;;;;;;;1.67;1.40;;;;;;;2.71;79.35;95406.59;5019507;28;20202;-83
2022/01/06 05:41:07;;;;;;;2.30;1.33;;;;;;;2.64;79.50;95403.00;5035825;28;20230;-83
2022/01/06 05:43:34;;;;;;;4.03;1.70;;;;;;;2.63;79.89;95401.41;5018685;28;20203;-84
2022/01/06 05:46:03;;;;;;;3.53;1.73;;;;;;;2.59;79.83;95409.41;5025689;28;20202;-83
2022/01/06 05:48:29;;;;;;;3.10;1.90;;;;;;;2.70;78.76;95432.97;5018856;28;20627;-83
2022/01/06 05:50:56;;;;;;;2.33;1.70;;;;;;;2.76;78.46;95431.63;5023698;28;20229;-83
2022/01/06 05:53:23;;;;;;;2.33;1.60;;;;;;;2.81;78.15;95434.59;5037280;28;20210;-83
2022/01/06 05:55:50;;;;;;;2.73;1.70;;;;;;;2.86;77.99;95437.53;5030285;28;20258;-84
2022/01/06 05:58:16;;;;;;;2.43;1.60;;;;;;;2.92;77.25;95442.06;5024602;28;20219;-83
2022/01/06 06:00:44;;;;;;;4.13;1.60;;;;;;;2.91;77.05;95454.91;5022584;28;20249;-84
2022/01/06 06:03:17;;;;;;;2.33;1.60;;;;;;;2.87;77.07;95454.41;5038619;28;20206;-84
2022/01/06 06:05:43;;;;;;;4.70;1.90;;;;;;;2.91;76.94;95454.91;5035145;28;20194;-84
2022/01/06 06:08:10;;;;;;;3.50;1.83;;;;;;;2.92;76.94;95457.34;5020450;28;20225;-83
2022/01/06 06:10:37;;;;;;;3.17;1.60;;;;;;;2.93;76.61;95458.13;5022600;28;20219;-83
2022/01/06 06:13:03;;;;;;;2.30;1.40;;;;;;;2.84;76.14;95464.03;5038756;28;20221;-84
2022/01/06 06:15:34;;;;;;;1.60;1.20;;;;;;;2.91;75.99;95465.91;5032187;28;20237;-83
2022/01/06 06:18:00;;;;;;;1.50;1.40;;;;;;;2.99;76.05;95458.41;5027387;28;20324;-83
2022/01/06 06:20:28;;;;;;;2.53;1.40;;;;;;;2.87;75.75;95456.94;5016953;28;20652;-83
2022/01/06 06:22:54;;;;;;;2.83;1.50;;;;;;;2.85;76.13;95468.97;5018567;28;20615;-84
2022/01/06 06:25:21;;;;;;;2.20;1.20;;;;;;;2.87;76.20;95469.66;5036866;28;20213;-83
2022/01/06 06:27:47;;;;;;;2.83;1.40;;;;;;;2.83;76.03;95467.50;5033915;28;20739;-84
2022/01/06 06:30:14;;;;;;;1.90;1.50;;;;;;;2.76;76.36;95462.94;5018617;28;20226;-83
2022/01/06 06:32:41;;;;;;;1.93;1.57;;;;;;;2.86;76.15;95469.78;5024835;28;20195;-84
2022/01/06 06:35:10;;;;;;;2.17;1.57;;;;;;;2.91;75.96;95473.53;5018687;28;20598;-84
2022/01/06 06:37:38;;;;;;;3.70;1.33;;;;;;;2.92;75.64;95476.88;5018359;28;20690;-84
2022/01/06 06:40:07;;;;;;;1.93;1.50;;;;;;;2.97;75.35;95474.75;5017756;28;20223;-84
2022/01/06 06:42:36;;;;;;;3.93;2.03;;;;;;;2.98;74.98;95484.78;5015150;28;20642;-84
2022/01/06 06:45:02;;;;;;;2.27;1.30;;;;;;;2.84;75.57;95482.63;5015711;28;20195;-83
2022/01/06 06:47:29;;;;;;;2.07;1.40;;;;;;;2.85;75.47;95481.69;5016542;28;20218;-83
2022/01/06 06:49:59;;;;;;;1.97;1.60;;;;;;;2.88;75.51;95489.06;5028983;28;20602;-84
2022/01/06 06:52:26;;;;;;;2.13;1.20;;;;;;;2.85;77.06;95498.69;5015861;28;20345;-84
2022/01/06 06:54:54;;;;;;;3.03;1.57;;;;;;;2.70;79.54;95493.16;5016182;28;20677;-84
2022/01/06 06:57:21;;;;;;;3.80;1.60;;;;;;;2.87;79.61;95499.38;5015785;28;20263;-84
2022/01/06 06:59:48;;;;;;;4.63;1.50;;;;;;;2.84;79.93;95510.59;5015956;28;20253;-83
2022/01/06 07:02:14;;;;;;;2.70;1.50;;;;;;;2.75;80.90;95508.81;5014714;28;20571;-84
2022/01/06 07:04:41;;;;;;;2.30;1.60;;;;;;;2.72;81.83;95517.50;5028177;28;20190;-84
2022/01/06 07:07:07;;;;;;;3.60;1.70;;;;;;;2.85;81.69;95511.41;5020491;28;20598;-84
2022/01/06 07:09:34;;;;;;;8.60;2.70;;;;;;;3.47;100.00;95518.66;5014464;28;20704;-81
2022/01/06 07:12:01;;;;;;;2.77;1.70;;;;;;;3.92;84.27;95518.09;5018161;28;20210;-83
2022/01/06 07:14:28;;;;;;;1.83;1.53;;;;;;;3.66;78.48;95522.94;5029385;28;20194;-84
2022/01/06 07:16:54;;;;;;;2.10;1.47;;;;;;;3.43;78.82;95523.25;5030426;28;20237;-84
2022/01/06 07:19:21;;;;;;;4.07;1.47;;;;;;;3.25;79.19;95524.84;5016754;28;20210;-84
2022/01/06 07:21:47;;;;;;;2.37;1.30;;;;;;;3.21;79.43;95531.13;5021357;28;20214;-84
2022/01/06 07:24:13;;;;;;;3.47;1.70;;;;;;;3.00;80.21;95533.78;5017203;28;20206;-84
2022/01/06 07:26:40;;;;;;;4.17;1.73;;;;;;;2.93;80.41;95540.31;5016442;28;20231;-84
2022/01/06 07:29:08;;;;;;;1.60;1.50;;;;;;;2.98;80.94;95545.81;5017400;28;20207;-84
2022/01/06 07:31:35;;;;;;;1.60;1.50;;;;;;;2.98;81.25;95552.63;5033125;28;20629;-84
2022/01/06 07:34:01;;;;;;;3.73;1.60;;;;;;;2.98;80.54;95550.09;5025057;28;20201;-84
2022/01/06 07:36:27;;;;;;;2.33;1.60;;;;;;;3.04;80.52;95555.47;5021175;28;20198;-83
2022/01/06 07:38:54;;;;;;;2.40;1.50;;;;;;;3.09;79.73;95562.69;5056017;22;20222;-84
2022/01/06 07:41:20;;;;;;;1.30;1.20;;;;;;;3.07;80.22;95547.59;5015250;28;20590;-84
2022/01/06 07:43:47;;;;;;;1.70;1.37;;;;;;;3.16;79.21;95555.34;5016826;28;20202;-83
2022/01/06 07:46:15;;;;;;;1.40;1.30;;;;;;;2.94;80.20;95557.16;5016416;28;20202;-84
2022/01/06 07:48:56;;;;;;;2.70;1.57;;;;;;;2.95;79.84;95553.69;5013879;28;20218;-84
2022/01/06 07:51:24;;;;;;;1.57;1.17;;;;;;;3.01;79.51;95560.00;5007359;28;20226;-83
2022/01/06 07:53:50;;;;;;;2.00;1.37;;;;;;;2.95;79.05;95563.06;5008563;28;20985;-84
2022/01/06 07:56:17;;;;;;;2.27;1.70;;;;;;;2.91;78.84;95565.06;4996383;28;20606;-84
2022/01/06 07:58:44;;;;;;;3.10;1.53;;;;;;;2.82;78.93;95565.03;5012747;28;20251;-84
2022/01/06 08:01:12;;;;;;;3.50;1.40;;;;;;;2.87;78.70;95566.28;5013984;28;20230;-84
2022/01/06 08:03:40;;;;;;;2.40;1.33;;;;;;;2.92;78.32;95573.50;5006009;28;20205;-85
2022/01/06 08:06:06;;;;;;;3.10;1.47;;;;;;;2.93;77.36;95577.66;5015989;28;20209;-82
2022/01/06 08:08:35;;;;;;;1.93;1.70;;;;;;;2.95;77.61;95574.03;5015580;28;20220;-84
2022/01/06 08:11:03;;;;;;;2.17;1.33;;;;;;;2.86;77.17;95579.13;5014502;28;20231;-85
2022/01/06 08:13:31;;;;;;;2.13;1.40;;;;;;;2.83;77.15;95575.09;5013994;28;20678;-86
2022/01/06 08:15:58;;;;;;;3.00;1.30;;;;;;;2.95;76.59;95568.97;5013782;28;20205;-84
2022/01/06 08:18:25;;;;;;;1.73;1.40;;;;;;;3.07;76.27;95562.84;5011563;28;20253;-85
2022/01/06 08:20:53;;;;;;;2.37;1.40;;;;;;;3.05;75.29;95574.09;5008845;28;20616;-87
2022/01/06 08:23:20;;;;;;;2.23;1.50;;;;;;;3.08;75.15;95573.78;5005445;28;20204;-84
2022/01/06 08:25:46;;;;;;;1.97;1.47;;;;;;;3.11;74.82;95578.63;5010459;28;20205;-85
2022/01/06 08:28:13;;;;;;;3.17;1.60;;;;;;;3.30;74.51;95571.03;5016391;28;20225;-83
2022/01/06 08:30:40;;;;;;;1.83;1.40;;;;;;;3.50;73.01;95576.94;5016089;28;20230;-83
2022/01/06 08:33:06;;;;;;;2.13;1.70;;;;;;;3.89;71.69;95585.38;5014808;28;20198;-84
2022/01/06 08:35:33;;;;;;;2.83;1.67;;;;;;;3.96;71.25;95589.00;5015518;28;20195;-82
2022/01/06 08:38:01;;;;;;;2.33;1.40;;;;;;;3.89;71.14;95593.00;5014866;28;20314;-82
2022/01/06 08:40:28;;;;;;;2.13;1.63;;;;;;;3.80;71.68;95599.72;5009683;28;20225;-84
2022/01/06 08:42:54;;;;;;;10.30;6.47;;;;;;;3.66;71.98;95596.75;5004366;28;20701;-84
2022/01/06 08:45:21;;;;;;;3.40;2.07;;;;;;;3.74;71.46;95595.16;5015687;28;20651;-84
2022/01/06 08:47:48;;;;;;;1.50;1.40;;;;;;;4.00;71.63;95604.81;5014988;28;20289;-83
2022/01/06 08:50:16;;;;;;;1.90;1.57;;;;;;;4.19;70.33;95604.00;5016055;28;20230;-82
2022/01/06 08:52:43;;;;;;;2.20;1.67;;;;;;;4.29;69.45;95607.31;5015348;28;20226;-83
2022/01/06 08:55:11;;;;;;;2.93;1.60;;;;;;;4.27;69.60;95606.63;5010543;28;20230;-83
2022/01/06 08:57:39;;;;;;;2.03;1.50;;;;;;;4.25;69.76;95608.50;5015074;28;20246;-84
2022/01/06 09:00:08;;;;;;;1.97;1.60;;;;;;;4.23;69.69;95611.22;5015959;28;20238;-84
2022/01/06 09:02:34;;;;;;;2.13;1.70;;;;;;;4.26;69.06;95610.94;5015261;28;20743;-83
2022/01/06 09:05:03;;;;;;;2.33;1.90;;;;;;;4.23;68.98;95611.22;5015408;28;20210;-85
2022/01/06 09:07:29;;;;;;;2.27;1.70;;;;;;;4.22;68.88;95609.63;5015049;28;20206;-82
2022/01/06 09:09:56;;;;;;;2.40;1.77;;;;;;;4.59;68.39;95609.66;5005327;28;20222;-84
2022/01/06 09:12:23;;;;;;;1.93;1.63;;;;;;;4.75;66.86;95609.06;5014585;28;20199;-82
2022/01/06 09:14:50;;;;;;;2.03;1.87;;;;;;;5.04;66.23;95611.47;5013817;28;20245;-81
2022/01/06 09:17:17;;;;;;;2.67;1.70;;;;;;;5.39;65.14;95615.84;5012084;28;20226;-80
2022/01/06 09:19:43;;;;;;;2.87;1.60;;;;;;;5.63;63.91;95613.53;5012778;28;20718;-84
2022/01/06 09:22:10;;;;;;;1.77;1.60;;;;;;;5.78;63.40;95606.19;5013810;28;20198;-83
2022/01/06 09:24:37;;;;;;;3.07;1.80;;;;;;;5.77;62.75;95613.03;5014840;28;20210;-83
2022/01/06 09:27:04;;;;;;;2.70;1.37;;;;;;;5.94;62.67;95620.91;5014849;28;20222;-84
2022/01/06 09:29:32;;;;;;;2.17;1.67;;;;;;;6.27;62.13;95621.94;5011894;28;20753;-83
2022/01/06 09:31:58;;;;;;;3.60;1.80;;;;;;;6.28;61.83;95624.34;5012139;28;20613;-83
2022/01/06 09:34:25;;;;;;;2.67;1.83;;;;;;;5.91;61.92;95632.22;5012497;28;20218;-84
2022/01/06 09:36:51;;;;;;;2.17;1.70;;;;;;;5.68;63.04;95623.34;5012369;28;20210;-84
2022/01/06 09:39:18;;;;;;;1.73;1.63;;;;;;;5.55;63.70;95628.81;5011641;28;20229;-84
2022/01/06 09:41:44;;;;;;;2.33;1.70;;;;;;;5.37;64.37;95633.09;5008970;28;20206;-79
2022/01/06 09:44:11;;;;;;;2.50;1.67;;;;;;;5.14;64.45;95632.66;5009616;28;20207;-83
2022/01/06 09:46:39;;;;;;;2.60;2.07;;;;;;;5.02;66.01;95649.09;5011813;28;20195;-85
2022/01/06 09:49:06;;;;;;;3.97;2.20;;;;;;;5.19;65.29;95648.38;5010639;28;20202;-85
2022/01/06 09:51:34;;;;;;;3.57;1.83;;;;;;;5.51;65.29;95640.25;5012039;28;20628;-84
2022/01/06 09:54:02;;;;;;;2.23;1.77;;;;;;;5.66;63.15;95643.91;5012855;28;20205;-85
2022/01/06 09:56:29;;;;;;;2.53;1.70;;;;;;;5.63;63.34;95646.75;5011155;28;20203;-85
2022/01/06 09:58:56;;;;;;;2.00;1.70;;;;;;;6.04;62.85;95645.41;5012908;28;20750;-83
2022/01/06 10:01:22;;;;;;;2.70;1.97;;;;;;;6.04;62.20;95639.50;5011312;28;20253;-85
2022/01/06 10:03:51;;;;;;;2.63;1.70;;;;;;;5.79;62.65;95646.91;5012335;28;20379;-85
2022/01/06 10:06:19;;;;;;;3.43;1.70;;;;;;;5.66;64.27;95648.22;5012456;28;20203;-84
2022/01/06 10:08:51;;;;;;;2.93;2.00;;;;;;;5.52;64.25;95655.44;5012568;28;20222;-84
2022/01/06 10:11:20;;;;;;;4.93;3.40;;;;;;;5.43;64.16;95658.03;5012455;28;20210;-82
2022/01/06 10:13:56;;;;;;;2.43;2.03;;;;;;;5.67;64.18;95662.59;5013088;28;20210;-85
2022/01/06 10:16:23;;;;;;;3.13;2.23;;;;;;;5.75;63.94;95658.38;5012795;28;20570;-84
2022/01/06 10:18:56;;;;;;;3.83;2.00;;;;;;;5.91;63.53;95659.50;5012433;28;20230;-85
2022/01/06 10:21:29;;;;;;;2.27;2.03;;;;;;;5.81;63.07;95659.53;5010541;28;20226;-83
2022/01/06 10:24:00;;;;;;;2.87;2.00;;;;;;;5.96;63.21;95659.88;5008772;28;20260;-82
2022/01/06 10:26:27;;;;;;;2.33;2.07;;;;;;;5.80;63.43;95663.84;5011621;28;20261;-83
2022/01/06 10:28:53;;;;;;;2.77;2.07;;;;;;;5.75;63.64;95668.59;5011972;28;20210;-83
2022/01/06 10:31:26;;;;;;;3.17;2.17;;;;;;;5.86;62.82;95659.91;5011741;28;20230;-85
2022/01/06 10:33:54;;;;;;;2.40;2.20;;;;;;;6.16;63.21;95662.13;5012254;28;20209;-84
2022/01/06 10:36:28;;;;;;;3.17;2.20;;;;;;;6.48;61.50;95659.03;5002314;28;20213;-81
2022/01/06 10:38:55;;;;;;;3.23;1.90;;;;;;;6.55;61.77;95666.88;5009674;28;20693;-83
2022/01/06 10:41:21;;;;;;;2.27;1.67;;;;;;;6.54;62.53;95667.88;5010127;28;20230;-84
2022/01/06 10:43:53;;;;;;;4.40;2.00;;;;;;;6.53;70.82;95672.19;5004213;28;20199;-85
2022/01/06 10:46:32;;;;;;;3.60;2.00;;;;;;;6.33;62.65;95669.94;5009462;28;20656;-85
2022/01/06 10:49:01;;;;;;;2.27;2.07;;;;;;;6.21;63.02;95671.91;5014600;28;20249;-85
2022/01/06 10:51:35;;;;;;;3.07;2.23;;;;;;;5.83;62.60;95681.44;5014290;28;20311;-84
2022/01/06 10:54:02;;;;;;;5.43;2.27;;;;;;;5.48;63.21;95684.75;5014158;28;20204;-85
2022/01/06 10:56:28;;;;;;;3.20;2.17;;;;;;;5.36;64.84;95683.34;5013579;28;20202;-84
2022/01/06 10:58:59;;;;;;;3.97;2.23;;;;;;;5.32;64.71;95692.22;5012602;28;20222;-83
2022/01/06 11:01:27;;;;;;;4.97;2.17;;;;;;;5.26;65.52;95697.06;5012619;28;20235;-83
2022/01/06 11:03:53;;;;;;;2.83;2.10;;;;;;;5.17;65.47;95697.00;5013135;28;20238;-84
2022/01/06 11:06:21;;;;;;;2.73;2.37;;;;;;;4.98;66.63;95697.06;5012354;28;20711;-85
2022/01/06 11:08:50;;;;;;;2.47;2.00;;;;;;;4.94;68.27;95694.91;5014708;28;20219;-83
2022/01/06 11:11:30;;;;;;;3.33;2.60;;;;;;;4.88;69.74;95701.38;5016193;28;20292;-82
2022/01/06 11:13:56;;;;;;;12.30;8.60;;;;;;;4.72;71.71;95708.78;5017249;28;20270;-82
2022/01/06 11:16:23;;;;;;;10.60;7.70;;;;;;;4.67;72.36;95713.50;5016975;28;20203;-84
2022/01/06 11:18:52;;;;;;;4.37;3.40;;;;;;;4.59;72.76;95708.28;5016739;28;20230;-83
2022/01/06 11:21:24;;;;;;;3.90;2.40;;;;;;;4.57;72.63;95715.28;5015846;28;20222;-83
2022/01/06 11:24:01;;;;;;;3.03;2.47;;;;;;;4.56;72.50;95711.13;5015771;28;20203;-82
2022/01/06 11:26:28;;;;;;;4.80;2.70;;;;;;;4.59;72.15;95706.56;4997166;28;20203;-82
2022/01/06 11:28:58;;;;;;;4.83;2.60;;;;;;;4.56;72.76;95699.16;5003026;28;20256;-84
2022/01/06 11:31:27;;;;;;;3.07;2.40;;;;;;;4.64;72.42;95708.66;5015231;28;20237;-82
2022/01/06 11:33:56;;;;;;;3.13;2.20;;;;;;;4.61;71.84;95707.22;5016439;28;20253;-81
2022/01/06 11:36:26;;;;;;;3.83;2.70;;;;;;;4.63;72.43;95707.06;5015777;28;20225;-83
2022/01/06 11:38:53;;;;;;;3.03;2.30;;;;;;;4.67;72.11;95698.19;5015777;28;20230;-83
2022/01/06 11:41:24;;;;;;;4.23;2.40;;;;;;;4.70;71.88;95700.47;5015525;28;20238;-85
2022/01/06 11:43:52;;;;;;;3.67;2.70;;;;;;;4.81;70.88;95697.78;5012502;28;20192;-85
2022/01/06 11:46:19;;;;;;;5.33;2.90;;;;;;;4.67;70.80;95703.31;4995974;28;20204;-84
2022/01/06 11:48:47;;;;;;;3.30;2.80;;;;;;;4.68;71.00;95694.72;5006024;28;20772;-81